Jona — CQFI — position and weather

sailwx.info

Track history (hours):
 
Tides and Currents Weather Stations Pressure Air Temp Water Temp Dewpoint Dewpoint Depression Visibility Wind Speed Wind Dir Waves Ship Positions

Jona

Last reported at 2017-Sep-23 23:01 UTC. Time now 2017-Sep-24 03:35 UTC.
Position N 40°17' E 003°08'.

Length 192 m; draft 7.1 m.

Type: Cargo ship. MMSI: 255805610.

Date/timePositionNaut miles runAvg speedWind from/ knotsBaromVisibWave heightAir tempDewpointWater temp
2017-Sep-23 23:01N 40°17' E 003°08'714.3
2017-Sep-23 22:30N 40°22' E 003°15'369 8.3
2017-Sep-22 01:57N 43°34' E 010°18'0 0.0
2017-Sep-22 01:30N 43°34' E 010°18'0 0.0
2017-Sep-22 00:57N 43°34' E 010°18'0 0.0
2017-Sep-22 00:21N 43°34' E 010°18'0 0.0
2017-Sep-21 23:57N 43°34' E 010°18'0 0.0
2017-Sep-21 23:26N 43°34' E 010°18'0 0.0
2017-Sep-21 22:59N 43°34' E 010°18'0 0.0
2017-Sep-21 22:29N 43°34' E 010°18'0 0.0
2017-Sep-21 21:59N 43°34' E 010°18'0 0.0
2017-Sep-21 21:28N 43°34' E 010°18'0 0.0
2017-Sep-21 20:58N 43°34' E 010°18'0 0.0
2017-Sep-21 20:28N 43°34' E 010°18'0 0.0
2017-Sep-21 19:58N 43°34' E 010°18'0 0.0
2017-Sep-21 19:28N 43°34' E 010°18'0 0.0
2017-Sep-21 19:00N 43°34' E 010°18'0 0.0
2017-Sep-21 18:30N 43°34' E 010°18'0 0.0
2017-Sep-21 18:00N 43°34' E 010°18'0 0.0
2017-Sep-21 17:30N 43°34' E 010°18'1 1.2
2017-Sep-21 17:00N 43°34' E 010°18'4 7.5
2017-Sep-21 16:30N 43°31' E 010°15'1 2.7
2017-Sep-21 16:00N 43°30' E 010°14'0 0.5
2017-Sep-21 15:30N 43°30' E 010°13'510.0
2017-Sep-21 15:00N 43°26' E 010°09'917.2
2017-Sep-21 14:30N 43°20' E 010°00'917.9
2017-Sep-21 14:00N 43°14' E 009°51'917.9
2017-Sep-21 13:30N 43°08' E 009°42'3117.1
2017-Sep-21 11:40N 42°37' E 009°48'21712.8
2017-Sep-20 18:40N 40°38' E 013°51'212.7
2017-Sep-20 18:30N 40°37' E 013°53'612.1
2017-Sep-20 18:00N 40°37' E 014°01'612.6
2017-Sep-20 17:30N 40°42' E 014°08'712.9
2017-Sep-20 17:00N 40°46' E 014°14'4 0.2
2017-Sep-19 19:04N 40°49' E 014°16'0 0.2
2017-Sep-19 18:58N 40°49' E 014°16'0 0.0
2017-Sep-19 07:11N 40°49' E 014°16'0 0.0
2017-Sep-19 06:59N 40°49' E 014°16'0 0.5
2017-Sep-19 06:29N 40°49' E 014°15'2 3.7
2017-Sep-19 06:00N 40°47' E 014°15'714.4
2017-Sep-19 05:30N 40°42' E 014°09'27312.3
2017-Sep-18 07:13N 38°40' E 008°51'  
2017-Sep-15 21:58N 36°05' W 005°09'613.1
2017-Sep-15 21:30N 36°05' W 005°16'713.2
2017-Sep-15 21:00N 36°07' W 005°24'2 0.3
2017-Sep-15 12:31N 36°08' W 005°26'0 0.0
2017-Sep-14 21:48N 36°08' W 005°26'0 0.0
2017-Sep-14 19:50N 36°08' W 005°26'0 0.0
2017-Sep-14 19:29N 36°08' W 005°26'0 0.0
2017-Sep-14 18:50N 36°08' W 005°26'0 0.0
2017-Sep-14 17:22N 36°08' W 005°26'0 0.0
2017-Sep-14 15:53N 36°08' W 005°26'3 0.6
2017-Sep-14 10:44N 36°06' W 005°23'16214.2
2017-Sep-13 23:23N 36°27' W 002°04'  
Track history (hours):
 
Tides and Currents Weather Stations Pressure Air Temp Water Temp Dewpoint Dewpoint Depression Visibility Wind Speed Wind Dir Waves Ship Positions

Jona

Last reported at 2017-Sep-23 23:01 UTC. Time now 2017-Sep-24 03:35 UTC.
Position N 40°17' E 003°08'.

Length 192 m; draft 7.1 m.

Type: Cargo ship. MMSI: 255805610.

Date/timePositionNaut miles runAvg speedWind from/ knotsBaromVisibWave heightAir tempDewpointWater temp
2017-Sep-23 23:01N 40°17' E 003°08'714.3
2017-Sep-23 22:30N 40°22' E 003°15'369 8.3
2017-Sep-22 01:57N 43°34' E 010°18'0 0.0
2017-Sep-22 01:30N 43°34' E 010°18'0 0.0
2017-Sep-22 00:57N 43°34' E 010°18'0 0.0
2017-Sep-22 00:21N 43°34' E 010°18'0 0.0
2017-Sep-21 23:57N 43°34' E 010°18'0 0.0
2017-Sep-21 23:26N 43°34' E 010°18'0 0.0
2017-Sep-21 22:59N 43°34' E 010°18'0 0.0
2017-Sep-21 22:29N 43°34' E 010°18'0 0.0
2017-Sep-21 21:59N 43°34' E 010°18'0 0.0
2017-Sep-21 21:28N 43°34' E 010°18'0 0.0
2017-Sep-21 20:58N 43°34' E 010°18'0 0.0
2017-Sep-21 20:28N 43°34' E 010°18'0 0.0
2017-Sep-21 19:58N 43°34' E 010°18'0 0.0
2017-Sep-21 19:28N 43°34' E 010°18'0 0.0
2017-Sep-21 19:00N 43°34' E 010°18'0 0.0
2017-Sep-21 18:30N 43°34' E 010°18'0 0.0
2017-Sep-21 18:00N 43°34' E 010°18'0 0.0
2017-Sep-21 17:30N 43°34' E 010°18'1 1.2
2017-Sep-21 17:00N 43°34' E 010°18'4 7.5
2017-Sep-21 16:30N 43°31' E 010°15'1 2.7
2017-Sep-21 16:00N 43°30' E 010°14'0 0.5
2017-Sep-21 15:30N 43°30' E 010°13'510.0
2017-Sep-21 15:00N 43°26' E 010°09'917.2
2017-Sep-21 14:30N 43°20' E 010°00'917.9
2017-Sep-21 14:00N 43°14' E 009°51'917.9
2017-Sep-21 13:30N 43°08' E 009°42'3117.1
2017-Sep-21 11:40N 42°37' E 009°48'21712.8
2017-Sep-20 18:40N 40°38' E 013°51'212.7
2017-Sep-20 18:30N 40°37' E 013°53'612.1
2017-Sep-20 18:00N 40°37' E 014°01'612.6
2017-Sep-20 17:30N 40°42' E 014°08'712.9
2017-Sep-20 17:00N 40°46' E 014°14'4 0.2
2017-Sep-19 19:04N 40°49' E 014°16'0 0.2
2017-Sep-19 18:58N 40°49' E 014°16'0 0.0
2017-Sep-19 07:11N 40°49' E 014°16'0 0.0
2017-Sep-19 06:59N 40°49' E 014°16'0 0.5
2017-Sep-19 06:29N 40°49' E 014°15'2 3.7
2017-Sep-19 06:00N 40°47' E 014°15'714.4
2017-Sep-19 05:30N 40°42' E 014°09'27312.3
2017-Sep-18 07:13N 38°40' E 008°51'  
2017-Sep-15 21:58N 36°05' W 005°09'613.1
2017-Sep-15 21:30N 36°05' W 005°16'713.2
2017-Sep-15 21:00N 36°07' W 005°24'2 0.3
2017-Sep-15 12:31N 36°08' W 005°26'0 0.0
2017-Sep-14 21:48N 36°08' W 005°26'0 0.0
2017-Sep-14 19:50N 36°08' W 005°26'0 0.0
2017-Sep-14 19:29N 36°08' W 005°26'0 0.0
2017-Sep-14 18:50N 36°08' W 005°26'0 0.0
2017-Sep-14 17:22N 36°08' W 005°26'0 0.0
2017-Sep-14 15:53N 36°08' W 005°26'3 0.6
2017-Sep-14 10:44N 36°06' W 005°23'16214.2
2017-Sep-13 23:23N 36°27' W 002°04'  

Dump ship's entire track history